Time;durP1;ratioP1;P1;durP2;ratioP2;P2;SDS_P1;SDS_P2;PMS_P1;PMS_P2;Temp;Humidity;BMP_temperature;BMP_pressure;BME280_temperature;BME280_humidity;BME280_pressure;Samples;Min_cycle;Max_cycle;Signal;HPM_P1;HPM_P2
2022/03/14 00:00:22;0.00;0.00;0.62;0.00;0.00;0.62;2.93;1.87;;;24.80;18.10;;;;;;2227267;62;20384;-49
2022/03/14 00:03:06;0.00;0.00;0.62;0.00;0.00;0.62;2.17;1.97;;;24.90;18.30;;;;;;2227372;62;20379;-49
2022/03/14 00:05:50;0.00;0.00;0.62;0.00;0.00;0.62;2.40;1.73;;;24.80;18.20;;;;;;2227824;62;20445;-50
2022/03/14 00:08:38;0.00;0.00;0.62;0.00;0.00;0.62;3.10;1.87;;;24.80;18.20;;;;;;2227653;62;20400;-52
2022/03/14 00:11:25;0.00;0.00;0.62;0.00;0.00;0.62;1.90;1.50;;;24.80;18.30;;;;;;2227283;62;20932;-52
2022/03/14 00:14:10;0.00;0.00;0.62;0.00;0.00;0.62;1.93;1.43;;;24.80;18.30;;;;;;2227680;62;20372;-51
2022/03/14 00:16:56;0.00;0.00;0.62;0.00;0.00;0.62;2.50;1.70;;;24.80;18.30;;;;;;2227424;62;20426;-54
2022/03/14 00:19:41;0.00;0.00;0.62;0.00;0.00;0.62;3.00;2.20;;;24.80;18.30;;;;;;2227445;62;20424;-54
2022/03/14 00:22:26;0.00;0.00;0.62;0.00;0.00;0.62;3.20;1.90;;;24.80;18.30;;;;;;2227621;62;20798;-48
2022/03/14 00:25:11;0.00;0.00;0.62;0.00;0.00;0.62;2.03;1.70;;;24.80;18.30;;;;;;2227320;62;20400;-47
2022/03/14 00:27:56;0.00;0.00;0.62;0.00;0.00;0.62;2.13;1.33;;;24.80;18.30;;;;;;2227797;62;20421;-51
2022/03/14 00:30:41;0.00;0.00;0.62;0.00;0.00;0.62;2.60;1.40;;;24.80;18.30;;;;;;2227412;62;20396;-48
2022/03/14 00:33:26;0.00;0.00;0.62;0.00;0.00;0.62;2.17;1.67;;;24.80;18.30;;;;;;2227154;62;20946;-52
2022/03/14 00:36:11;0.00;0.00;0.62;0.00;0.00;0.62;2.33;1.63;;;24.80;18.30;;;;;;2227582;62;20396;-51
2022/03/14 00:38:56;0.00;0.00;0.62;0.00;0.00;0.62;3.17;1.80;;;24.80;18.30;;;;;;2227198;62;20425;-49
2022/03/14 00:41:41;0.00;0.00;0.62;0.00;0.00;0.62;2.60;1.80;;;24.80;18.40;;;;;;2227701;62;20376;-51
2022/03/14 00:44:26;0.00;0.00;0.62;0.00;0.00;0.62;2.53;2.00;;;24.80;18.30;;;;;;2227744;62;20420;-52
2022/03/14 00:47:11;0.00;0.00;0.62;0.00;0.00;0.62;2.90;2.33;;;24.80;18.20;;;;;;2227034;62;20425;-52
2022/03/14 00:49:56;0.00;0.00;0.62;0.00;0.00;0.62;2.40;2.13;;;24.70;18.00;;;;;;2227431;62;20383;-56
2022/03/14 00:52:41;0.00;0.00;0.62;0.00;0.00;0.62;3.37;2.67;;;24.80;17.90;;;;;;2227517;62;20396;-51
2022/03/14 00:55:26;0.00;0.00;0.62;0.00;0.00;0.62;4.70;3.70;;;24.70;17.60;;;;;;2227838;62;20372;-53
2022/03/14 00:58:10;0.00;0.00;0.62;0.00;0.00;0.62;5.50;3.83;;;24.70;17.50;;;;;;2228357;62;21037;-57
2022/03/14 01:00:55;0.00;0.00;0.62;0.00;0.00;0.62;3.77;3.33;;;24.70;17.40;;;;;;2228298;62;20440;-54
2022/03/14 01:03:39;0.00;0.00;0.62;0.00;0.00;0.62;4.80;4.10;;;24.70;17.30;;;;;;2228041;62;20380;-51
2022/03/14 01:06:26;0.00;0.00;0.62;0.00;0.00;0.62;6.30;4.93;;;24.70;17.10;;;;;;2228248;62;20443;-50
2022/03/14 01:09:11;0.00;0.00;0.62;0.00;0.00;0.62;4.10;3.70;;;24.70;17.10;;;;;;2227042;62;20809;-54
2022/03/14 01:11:56;0.00;0.00;0.62;0.00;0.00;0.62;5.83;4.60;;;24.60;16.90;;;;;;2228243;62;20820;-54
2022/03/14 01:14:43;0.00;0.00;0.62;0.00;0.00;0.62;4.90;3.87;;;24.60;16.80;;;;;;2228188;62;20376;-54
2022/03/14 01:17:28;0.00;0.00;0.62;0.00;0.00;0.62;4.23;3.83;;;24.50;16.70;;;;;;2227923;62;20833;-52
2022/03/14 01:20:12;0.00;0.00;0.62;0.00;0.00;0.62;4.53;4.10;;;24.50;16.60;;;;;;2228139;62;20403;-54
2022/03/14 01:22:58;0.00;0.00;0.62;0.00;0.00;0.62;5.73;4.97;;;24.50;16.60;;;;;;2228524;62;20419;-53
2022/03/14 01:25:44;0.00;0.00;0.62;0.00;0.00;0.62;5.00;4.37;;;24.50;16.50;;;;;;2228646;62;20360;-51
2022/03/14 01:28:29;0.00;0.00;0.62;0.00;0.00;0.62;5.13;4.63;;;24.40;16.50;;;;;;2229766;62;20387;-54
2022/03/14 01:31:13;0.00;0.00;0.62;0.00;0.00;0.62;4.77;4.37;;;24.40;16.40;;;;;;2229647;62;20392;-51
2022/03/14 01:33:58;0.00;0.00;0.62;0.00;0.00;0.62;6.10;5.50;;;24.40;16.40;;;;;;2231555;62;20911;-53
2022/03/14 01:36:43;0.00;0.00;0.62;0.00;0.00;0.62;5.90;5.30;;;24.40;16.30;;;;;;2230648;62;20379;-51
2022/03/14 01:39:29;0.00;0.00;0.62;0.00;0.00;0.62;7.53;4.93;;;24.30;16.30;;;;;;2227554;62;20389;-51
2022/03/14 01:42:16;0.00;0.00;0.62;0.00;0.00;0.62;4.87;4.47;;;24.30;16.20;;;;;;2228209;62;20372;-52
2022/03/14 01:45:01;0.00;0.00;0.62;0.00;0.00;0.62;5.90;5.30;;;24.30;16.20;;;;;;2228106;62;20417;-56
2022/03/14 01:47:47;0.00;0.00;0.62;0.00;0.00;0.62;5.60;5.03;;;24.30;16.20;;;;;;2227943;62;20380;-52
2022/03/14 01:50:33;0.00;0.00;0.62;0.00;0.00;0.62;6.33;4.77;;;24.20;16.10;;;;;;2228299;62;20384;-54
2022/03/14 01:53:20;0.00;0.00;0.62;0.00;0.00;0.62;5.23;4.80;;;24.20;16.10;;;;;;2227866;62;20380;-50
2022/03/14 01:56:06;0.00;0.00;0.62;0.00;0.00;0.62;5.17;4.67;;;24.20;16.10;;;;;;2228058;62;20368;-54
2022/03/14 01:58:52;0.00;0.00;0.62;0.00;0.00;0.62;5.13;4.40;;;24.20;16.10;;;;;;2227983;62;20953;-59
2022/03/14 02:01:37;0.00;0.00;0.62;0.00;0.00;0.62;4.97;4.40;;;24.10;16.00;;;;;;2227747;62;20416;-51
2022/03/14 02:04:21;0.00;0.00;0.62;0.00;0.00;0.62;5.20;4.40;;;24.10;16.00;;;;;;2228194;62;20372;-51
2022/03/14 02:07:06;0.00;0.00;0.62;0.00;0.00;0.62;7.17;5.10;;;24.10;16.00;;;;;;2228122;62;20866;-53
2022/03/14 02:09:50;0.00;0.00;0.62;0.00;0.00;0.62;5.80;5.17;;;24.00;15.90;;;;;;2227590;62;20396;-56
2022/03/14 02:12:36;0.00;0.00;0.62;0.00;0.00;0.62;7.30;4.63;;;24.00;15.90;;;;;;2227829;62;20909;-50
2022/03/14 02:15:21;0.00;0.00;0.62;0.00;0.00;0.62;6.07;4.90;;;24.00;15.90;;;;;;2228059;62;20412;-59
2022/03/14 02:18:07;0.00;0.00;0.62;0.00;0.00;0.62;5.87;5.27;;;24.00;15.90;;;;;;2228134;62;20400;-53
2022/03/14 02:20:53;0.00;0.00;0.62;0.00;0.00;0.62;5.97;5.37;;;24.00;15.90;;;;;;2227845;62;20937;-52
2022/03/14 02:23:38;0.00;0.00;0.62;0.00;0.00;0.62;5.80;5.00;;;23.90;15.80;;;;;;2227629;62;20914;-52
2022/03/14 02:26:22;0.00;0.00;0.62;0.00;0.00;0.62;6.10;5.60;;;23.90;15.80;;;;;;2228174;62;20415;-53
2022/03/14 02:29:08;0.00;0.00;0.62;0.00;0.00;0.62;6.20;5.60;;;23.90;15.80;;;;;;2227922;62;20761;-50
2022/03/14 02:31:53;0.00;0.00;0.62;0.00;0.00;0.62;5.73;5.17;;;23.90;15.90;;;;;;2227725;62;20424;-51
2022/03/14 02:34:38;0.00;0.00;0.62;0.00;0.00;0.62;7.00;6.07;;;23.80;15.80;;;;;;2227859;62;20513;-51
2022/03/14 02:37:24;0.00;0.00;0.62;0.00;0.00;0.62;5.53;4.83;;;23.80;15.70;;;;;;2228119;62;20372;-51
2022/03/14 02:40:10;0.00;0.00;0.62;0.00;0.00;0.62;6.40;5.70;;;23.80;15.70;;;;;;2227790;62;20952;-51
2022/03/14 02:42:55;0.00;0.00;0.62;0.00;0.00;0.62;5.40;4.90;;;23.80;15.70;;;;;;2227946;62;20403;-54
2022/03/14 02:45:40;0.00;0.00;0.62;0.00;0.00;0.62;6.60;6.00;;;23.70;15.60;;;;;;2227724;62;20375;-52
2022/03/14 02:48:26;0.00;0.00;0.62;0.00;0.00;0.62;7.10;5.60;;;23.70;15.60;;;;;;2228115;62;20394;-55
2022/03/14 02:51:14;0.00;0.00;0.62;0.00;0.00;0.62;6.40;5.30;;;23.70;15.70;;;;;;2227589;62;20392;-51
2022/03/14 02:54:01;0.00;0.00;0.62;0.00;0.00;0.62;6.27;5.50;;;23.70;15.70;;;;;;2227731;62;20948;-50
2022/03/14 02:56:46;0.00;0.00;0.62;0.00;0.00;0.62;6.00;5.47;;;23.60;15.60;;;;;;2227667;62;20404;-52
2022/03/14 02:59:32;0.00;0.00;0.62;0.00;0.00;0.62;6.50;5.80;;;23.60;16.10;;;;;;2227740;62;20428;-51
2022/03/14 03:02:18;0.00;0.00;0.62;0.00;0.00;0.62;5.40;4.80;;;23.60;15.70;;;;;;2227869;62;20504;-57
2022/03/14 03:05:05;0.00;0.00;0.62;0.00;0.00;0.62;6.23;5.13;;;23.60;15.70;;;;;;2227826;62;20950;-52
2022/03/14 03:07:49;0.00;0.00;0.62;0.00;0.00;0.62;6.37;5.73;;;23.50;15.70;;;;;;2227727;62;20376;-53
2022/03/14 03:10:35;0.00;0.00;0.62;0.00;0.00;0.62;5.73;5.23;;;23.50;15.70;;;;;;2227820;62;20420;-50
2022/03/14 03:13:20;0.00;0.00;0.62;0.00;0.00;0.62;6.50;5.50;;;23.50;15.70;;;;;;2227872;62;20373;-51
2022/03/14 03:16:07;0.00;0.00;0.62;0.00;0.00;0.62;6.70;5.57;;;23.40;15.60;;;;;;2226933;62;20407;-55
2022/03/14 03:18:52;0.00;0.00;0.62;0.00;0.00;0.62;6.13;5.40;;;23.40;15.60;;;;;;2227596;62;20400;-54
2022/03/14 03:21:39;0.00;0.00;0.62;0.00;0.00;0.62;6.47;5.40;;;23.40;15.60;;;;;;2230203;62;20953;-51
2022/03/14 03:24:24;0.00;0.00;0.62;0.00;0.00;0.62;5.57;5.07;;;23.40;15.60;;;;;;2227765;62;20851;-53
2022/03/14 03:27:10;0.00;0.00;0.62;0.00;0.00;0.62;5.83;5.33;;;23.30;15.60;;;;;;2227861;62;20460;-51
2022/03/14 03:29:54;0.00;0.00;0.62;0.00;0.00;0.62;6.07;5.13;;;23.30;15.60;;;;;;2227359;62;20388;-54
2022/03/14 03:32:39;0.00;0.00;0.62;0.00;0.00;0.62;7.83;5.30;;;23.30;15.60;;;;;;2227279;62;20372;-52
2022/03/14 03:35:23;0.00;0.00;0.62;0.00;0.00;0.62;5.63;5.13;;;23.30;15.60;;;;;;2227812;62;20372;-51
2022/03/14 03:38:08;0.00;0.00;0.62;0.00;0.00;0.62;6.43;5.83;;;23.30;15.70;;;;;;2227809;62;20363;-50
2022/03/14 03:40:52;0.00;0.00;0.62;0.00;0.00;0.62;7.20;5.10;;;23.20;15.60;;;;;;2227829;62;20383;-51
2022/03/14 03:43:39;0.00;0.00;0.62;0.00;0.00;0.62;7.27;6.30;;;23.20;15.60;;;;;;2227802;62;20933;-51
2022/03/14 03:46:23;0.00;0.00;0.62;0.00;0.00;0.62;5.43;4.90;;;23.20;15.60;;;;;;2228018;62;20376;-52
2022/03/14 03:49:08;0.00;0.00;0.62;0.00;0.00;0.62;5.87;5.30;;;23.10;15.60;;;;;;2227903;62;20460;-55
2022/03/14 03:51:55;0.00;0.00;0.62;0.00;0.00;0.62;7.50;5.93;;;23.10;15.60;;;;;;2227717;62;20544;-51
2022/03/14 03:54:39;0.00;0.00;0.62;0.00;0.00;0.62;5.27;4.77;;;23.10;15.60;;;;;;2227792;62;20392;-55
2022/03/14 03:57:24;0.00;0.00;0.62;0.00;0.00;0.62;7.10;5.83;;;23.10;15.60;;;;;;2227927;62;20441;-53
2022/03/14 04:00:12;0.00;0.00;0.62;0.00;0.00;0.62;6.10;5.50;;;23.00;15.50;;;;;;2227513;62;20867;-50
2022/03/14 04:03:00;0.00;0.00;0.62;0.00;0.00;0.62;6.83;5.90;;;23.00;15.50;;;;;;2227552;62;20376;-56
2022/03/14 04:05:45;0.00;0.00;0.62;0.00;0.00;0.62;6.23;5.60;;;23.00;15.50;;;;;;2228088;62;20893;-54
2022/03/14 04:08:30;0.00;0.00;0.62;0.00;0.00;0.62;6.10;5.33;;;23.00;15.50;;;;;;2227753;62;20547;-52
2022/03/14 04:11:16;0.00;0.00;0.62;0.00;0.00;0.62;6.50;5.73;;;23.00;15.60;;;;;;2227596;62;20392;-51
2022/03/14 04:14:01;0.00;0.00;0.62;0.00;0.00;0.62;7.33;6.13;;;22.90;15.40;;;;;;2227308;62;20392;-56
2022/03/14 04:16:47;0.00;0.00;0.62;0.00;0.00;0.62;6.23;5.40;;;22.90;15.40;;;;;;2227865;62;20433;-50
2022/03/14 04:19:34;0.00;0.00;0.62;0.00;0.00;0.62;7.57;5.97;;;22.90;15.50;;;;;;2227478;62;20424;-52
2022/03/14 04:22:19;0.00;0.00;0.62;0.00;0.00;0.62;6.30;5.77;;;22.90;15.50;;;;;;2226977;62;20420;-50
2022/03/14 04:25:05;0.00;0.00;0.62;0.00;0.00;0.62;5.93;5.33;;;22.90;15.50;;;;;;2227739;62;20806;-54
2022/03/14 04:27:51;0.00;0.00;0.62;0.00;0.00;0.62;5.80;5.20;;;22.80;15.40;;;;;;2227733;62;20376;-51
2022/03/14 04:30:36;0.00;0.00;0.62;0.00;0.00;0.62;8.33;6.20;;;22.80;15.40;;;;;;2227195;62;20991;-52
2022/03/14 04:33:22;0.00;0.00;0.62;0.00;0.00;0.62;6.87;5.57;;;22.80;15.40;;;;;;2227703;62;20436;-52
2022/03/14 04:36:08;0.00;0.00;0.62;0.00;0.00;0.62;6.93;5.30;;;22.80;15.40;;;;;;2227331;62;20908;-52
2022/03/14 04:38:52;0.00;0.00;0.62;0.00;0.00;0.62;6.77;6.10;;;22.80;15.40;;;;;;2227629;62;20427;-52
2022/03/14 04:41:37;0.00;0.00;0.62;0.00;0.00;0.62;6.13;5.53;;;22.70;15.40;;;;;;2227541;62;20856;-54
2022/03/14 04:44:23;0.00;0.00;0.62;0.00;0.00;0.62;6.80;5.67;;;22.70;15.40;;;;;;2227378;62;20375;-50
2022/03/14 04:47:08;0.00;0.00;0.62;0.00;0.00;0.62;6.87;5.80;;;22.70;15.40;;;;;;2227737;62;20407;-52
2022/03/14 04:49:54;0.00;0.00;0.62;0.00;0.00;0.62;6.87;6.17;;;22.70;15.40;;;;;;2227454;62;20739;-52
2022/03/14 04:52:39;0.00;0.00;0.62;0.00;0.00;0.62;6.43;5.63;;;22.60;15.40;;;;;;2227228;62;20531;-56
2022/03/14 04:55:24;0.00;0.00;0.62;0.00;0.00;0.62;6.27;5.77;;;22.60;15.40;;;;;;2227450;62;20415;-54
2022/03/14 04:58:14;0.00;0.00;0.62;0.00;0.00;0.62;6.37;5.77;;;22.60;15.40;;;;;;2226931;62;20372;-51
2022/03/14 05:00:59;0.00;0.00;0.62;0.00;0.00;0.62;5.90;5.37;;;22.60;15.40;;;;;;2227790;62;20436;-55
2022/03/14 05:03:45;0.00;0.00;0.62;0.00;0.00;0.62;6.60;5.97;;;22.60;15.50;;;;;;2227295;62;20415;-55
2022/03/14 05:06:32;0.00;0.00;0.62;0.00;0.00;0.62;7.00;5.90;;;22.60;15.50;;;;;;2227060;62;20460;-57
2022/03/14 05:09:17;0.00;0.00;0.62;0.00;0.00;0.62;6.53;5.90;;;22.50;15.30;;;;;;2227543;62;20446;-53
2022/03/14 05:12:01;0.00;0.00;0.62;0.00;0.00;0.62;7.60;6.60;;;22.50;15.30;;;;;;2227592;62;20372;-54
2022/03/14 05:14:49;0.00;0.00;0.62;0.00;0.00;0.62;7.83;6.17;;;22.50;15.20;;;;;;2227191;62;20441;-56
2022/03/14 05:17:34;0.00;0.00;0.62;0.00;0.00;0.62;6.67;6.07;;;22.50;15.20;;;;;;2227539;62;20408;-53
2022/03/14 05:20:19;0.00;0.00;0.62;0.00;0.00;0.62;7.20;6.13;;;22.40;15.20;;;;;;2226566;62;20952;-55
2022/03/14 05:23:04;0.00;0.00;0.62;0.00;0.00;0.62;7.33;6.30;;;22.40;15.30;;;;;;2227480;62;20460;-55
2022/03/14 05:25:49;0.00;0.00;0.62;0.00;0.00;0.62;6.17;5.60;;;22.40;15.30;;;;;;2227210;62;20404;-54
2022/03/14 05:28:34;0.00;0.00;0.62;0.00;0.00;0.62;6.30;5.70;;;22.40;15.30;;;;;;2227213;62;20412;-53
2022/03/14 05:31:21;0.00;0.00;0.62;0.00;0.00;0.62;6.40;5.80;;;22.40;15.30;;;;;;2227193;62;20899;-54
2022/03/14 05:34:07;0.00;0.00;0.62;0.00;0.00;0.62;7.37;6.50;;;22.30;15.30;;;;;;2227494;62;20372;-52
2022/03/14 05:36:51;0.00;0.00;0.62;0.00;0.00;0.62;6.70;6.00;;;22.30;15.30;;;;;;2227075;62;20401;-55
2022/03/14 05:39:37;0.00;0.00;0.62;0.00;0.00;0.62;6.93;5.80;;;22.30;15.30;;;;;;2227224;62;20870;-53
2022/03/14 05:42:22;0.00;0.00;0.62;0.00;0.00;0.62;7.33;6.60;;;22.30;15.30;;;;;;2228174;62;20776;-54
2022/03/14 05:45:08;0.00;0.00;0.62;0.00;0.00;0.62;7.47;6.53;;;22.30;15.30;;;;;;2228221;62;20376;-54
2022/03/14 05:47:53;0.00;0.00;0.62;0.00;0.00;0.62;7.33;6.53;;;22.20;15.20;;;;;;2227307;62;20376;-55
2022/03/14 05:50:38;0.00;0.00;0.62;0.00;0.00;0.62;6.70;6.10;;;22.20;15.10;;;;;;2227552;62;20464;-52
2022/03/14 05:53:22;0.00;0.00;0.62;0.00;0.00;0.62;7.23;5.80;;;22.20;15.10;;;;;;2228038;62;20380;-55
2022/03/14 05:56:08;0.00;0.00;0.62;0.00;0.00;0.62;7.70;5.83;;;22.20;15.10;;;;;;2227916;62;20376;-56
2022/03/14 05:58:52;0.00;0.00;0.62;0.00;0.00;0.62;6.30;5.70;;;22.20;15.10;;;;;;2227452;62;20933;-59
2022/03/14 06:01:38;0.00;0.00;0.62;0.00;0.00;0.62;6.87;6.23;;;22.20;15.20;;;;;;2227986;62;20396;-52
2022/03/14 06:04:23;0.00;0.00;0.62;0.00;0.00;0.62;6.30;5.70;;;22.10;15.20;;;;;;2228077;62;20361;-53
2022/03/14 06:07:07;0.00;0.00;0.62;0.00;0.00;0.62;6.37;5.47;;;22.20;15.30;;;;;;2227878;62;20809;-56
2022/03/14 06:09:52;0.00;0.00;0.62;0.00;0.00;0.62;6.80;6.07;;;22.20;15.40;;;;;;2227686;62;20836;-54
2022/03/14 06:12:38;0.00;0.00;0.62;0.00;0.00;0.62;6.97;5.83;;;22.10;15.30;;;;;;2227724;62;20372;-57
2022/03/14 06:15:22;0.00;0.00;0.62;0.00;0.00;0.62;6.20;5.00;;;22.10;15.40;;;;;;2228190;62;20698;-54
2022/03/14 06:18:07;0.00;0.00;0.62;0.00;0.00;0.62;5.60;5.10;;;22.10;15.40;;;;;;2227898;62;20441;-53
2022/03/14 06:20:52;0.00;0.00;0.62;0.00;0.00;0.62;5.43;4.80;;;22.10;15.50;;;;;;2227520;62;20387;-55
2022/03/14 06:23:37;0.00;0.00;0.62;0.00;0.00;0.62;5.63;5.13;;;22.10;15.50;;;;;;2227567;62;20911;-57
2022/03/14 06:26:21;0.00;0.00;0.62;0.00;0.00;0.62;5.20;4.67;;;22.10;15.50;;;;;;2228048;62;20376;-56
2022/03/14 06:29:07;0.00;0.00;0.62;0.00;0.00;0.62;6.47;4.90;;;22.10;15.60;;;;;;2227636;62;20933;-58
2022/03/14 06:31:52;0.00;0.00;0.62;0.00;0.00;0.62;5.57;4.30;;;22.10;15.60;;;;;;2227640;62;20489;-58
2022/03/14 06:34:37;0.00;0.00;0.62;0.00;0.00;0.62;4.80;4.30;;;22.10;15.60;;;;;;2227657;62;20372;-56
2022/03/14 06:37:24;0.00;0.00;0.62;0.00;0.00;0.62;4.57;3.97;;;22.10;15.70;;;;;;2228258;62;20368;-56
2022/03/14 06:40:10;0.00;0.00;0.62;0.00;0.00;0.62;5.37;4.60;;;22.10;15.70;;;;;;2227686;62;20459;-56
2022/03/14 06:42:55;0.00;0.00;0.62;0.00;0.00;0.62;4.27;3.87;;;22.10;15.70;;;;;;2227579;62;20379;-58
2022/03/14 06:45:42;0.00;0.00;0.62;0.00;0.00;0.62;4.40;4.00;;;22.10;15.80;;;;;;2227778;62;20368;-62
2022/03/14 06:48:26;0.00;0.00;0.62;0.00;0.00;0.62;5.73;4.03;;;22.10;15.80;;;;;;2227989;62;20372;-56
2022/03/14 06:51:11;0.00;0.00;0.62;0.00;0.00;0.62;4.67;4.20;;;22.10;15.80;;;;;;2227438;62;20448;-57
2022/03/14 06:53:56;0.00;0.00;0.62;0.00;0.00;0.62;5.10;4.53;;;22.10;15.80;;;;;;2227974;62;20376;-57
2022/03/14 06:56:43;0.00;0.00;0.62;0.00;0.00;0.62;5.30;4.37;;;22.10;15.90;;;;;;2227523;62;20975;-59
2022/03/14 06:59:29;0.00;0.00;0.62;0.00;0.00;0.62;5.60;4.23;;;22.10;15.90;;;;;;2227706;62;20442;-55
2022/03/14 07:02:14;0.00;0.00;0.62;0.00;0.00;0.62;5.23;3.60;;;22.10;15.90;;;;;;2227778;62;20364;-55
2022/03/14 07:04:59;0.00;0.00;0.62;0.00;0.00;0.62;4.27;3.87;;;22.10;15.90;;;;;;2227562;62;20901;-56
2022/03/14 07:07:45;0.00;0.00;0.62;0.00;0.00;0.62;4.67;4.00;;;22.10;15.90;;;;;;2228021;62;20417;-58
2022/03/14 07:10:30;0.00;0.00;0.62;0.00;0.00;0.62;4.27;3.87;;;22.10;16.00;;;;;;2227680;62;20476;-55
2022/03/14 07:13:15;0.00;0.00;0.62;0.00;0.00;0.62;3.53;3.20;;;22.10;16.00;;;;;;2227588;62;20424;-54
2022/03/14 07:16:00;0.00;0.00;0.62;0.00;0.00;0.62;4.27;3.87;;;22.10;16.00;;;;;;2227716;62;20708;-57
2022/03/14 07:18:46;0.00;0.00;0.62;0.00;0.00;0.62;5.00;3.83;;;22.10;16.00;;;;;;2227732;62;20384;-59
2022/03/14 07:21:34;0.00;0.00;0.62;0.00;0.00;0.62;3.97;3.50;;;22.10;16.10;;;;;;2227900;62;20392;-57
2022/03/14 07:24:19;0.00;0.00;0.62;0.00;0.00;0.62;4.57;3.80;;;22.10;16.00;;;;;;2227913;62;21047;-54
2022/03/14 07:27:04;0.00;0.00;0.62;0.00;0.00;0.62;4.20;3.67;;;22.10;16.10;;;;;;2227422;62;20894;-58
2022/03/14 07:29:48;0.00;0.00;0.62;0.00;0.00;0.62;3.93;3.30;;;22.10;16.10;;;;;;2227734;62;20899;-56
2022/03/14 07:32:33;0.00;0.00;0.62;0.00;0.00;0.62;3.30;2.90;;;22.10;16.60;;;;;;2223981;62;20381;-57
2022/03/14 07:35:20;0.00;0.00;0.62;0.00;0.00;0.62;3.83;3.20;;;22.10;16.10;;;;;;2223566;62;20416;-58
2022/03/14 07:38:05;0.00;0.00;0.62;0.00;0.00;0.62;3.80;3.27;;;22.10;16.10;;;;;;2223857;62;20503;-56
2022/03/14 07:40:50;0.00;0.00;0.62;0.00;0.00;0.62;3.50;3.20;;;22.20;16.20;;;;;;2223739;62;20401;-56
2022/03/14 07:43:35;0.00;0.00;0.62;0.00;0.00;0.62;3.63;3.33;;;22.20;16.20;;;;;;2226077;62;20365;-55
2022/03/14 07:46:19;0.00;0.00;0.62;0.00;0.00;0.62;5.20;4.37;;;22.20;16.20;;;;;;2223783;62;20422;-53
2022/03/14 07:49:03;0.00;0.00;0.62;0.00;0.00;0.62;3.60;3.03;;;22.20;16.20;;;;;;2223540;62;20867;-59
2022/03/14 07:51:49;0.00;0.00;0.62;0.00;0.00;0.62;3.50;3.13;;;22.20;16.20;;;;;;2223778;62;20384;-59
2022/03/14 07:54:35;0.00;0.00;0.62;0.00;0.00;0.62;3.77;3.20;;;22.20;16.20;;;;;;2223627;62;21031;-57
2022/03/14 07:57:19;0.00;0.00;0.62;0.00;0.00;0.62;4.27;3.10;;;22.20;16.20;;;;;;2223451;62;20465;-56
2022/03/14 08:00:09;0.00;0.00;0.62;0.00;0.00;0.62;2.60;2.40;;;22.20;16.20;;;;;;2223386;62;20405;-53
2022/03/14 08:02:59;0.00;0.00;0.62;0.00;0.00;0.62;2.83;2.53;;;22.20;16.30;;;;;;2223842;62;20926;-56
2022/03/14 08:05:45;0.00;0.00;0.62;0.00;0.00;0.62;3.10;2.80;;;22.20;16.30;;;;;;2223704;62;20422;-53
2022/03/14 08:08:31;0.00;0.00;0.62;0.00;0.00;0.62;3.30;3.00;;;22.20;16.30;;;;;;2223757;62;20412;-55
2022/03/14 08:11:15;0.00;0.00;0.62;0.00;0.00;0.62;2.97;2.67;;;22.20;16.30;;;;;;2223413;62;20389;-56
2022/03/14 08:14:01;0.00;0.00;0.62;0.00;0.00;0.62;4.00;2.40;;;22.20;16.30;;;;;;2223810;62;21020;-56
2022/03/14 08:16:46;0.00;0.00;0.62;0.00;0.00;0.62;2.60;2.27;;;22.20;16.30;;;;;;2223724;62;20407;-55
2022/03/14 08:19:30;0.00;0.00;0.62;0.00;0.00;0.62;3.53;2.73;;;22.20;16.30;;;;;;2223295;62;20425;-55
2022/03/14 08:22:15;0.00;0.00;0.62;0.00;0.00;0.62;2.70;2.23;;;22.30;16.40;;;;;;2223611;62;20369;-57
2022/03/14 08:25:00;0.00;0.00;0.62;0.00;0.00;0.62;3.20;2.80;;;22.30;16.40;;;;;;2223928;62;20377;-57
2022/03/14 08:27:46;0.00;0.00;0.62;0.00;0.00;0.62;2.70;2.40;;;22.30;16.40;;;;;;2224033;62;20382;-56
2022/03/14 08:30:31;0.00;0.00;0.62;0.00;0.00;0.62;2.90;2.50;;;22.30;16.40;;;;;;2223642;62;20393;-59
2022/03/14 08:33:17;0.00;0.00;0.62;0.00;0.00;0.62;2.87;2.30;;;22.30;16.40;;;;;;2224419;62;20369;-57
2022/03/14 08:36:04;0.00;0.00;0.62;0.00;0.00;0.62;2.77;2.50;;;22.30;16.40;;;;;;2224526;62;20384;-54
2022/03/14 08:38:49;0.00;0.00;0.62;0.00;0.00;0.62;2.83;2.53;;;22.30;16.40;;;;;;2224291;62;20913;-58
2022/03/14 08:41:36;0.00;0.00;0.62;0.00;0.00;0.62;3.07;2.37;;;22.30;16.40;;;;;;2224237;62;20440;-56
2022/03/14 08:44:21;0.00;0.00;0.62;0.00;0.00;0.62;2.33;2.13;;;22.30;16.40;;;;;;2223954;62;20378;-55
2022/03/14 08:47:06;0.00;0.00;0.62;0.00;0.00;0.62;3.60;2.50;;;22.30;16.50;;;;;;2223699;62;20372;-58
2022/03/14 08:49:50;0.00;0.00;0.62;0.00;0.00;0.62;2.90;2.20;;;22.40;16.50;;;;;;2223311;62;20389;-58
2022/03/14 08:52:36;0.00;0.00;0.62;0.00;0.00;0.62;2.60;2.10;;;22.30;16.50;;;;;;2223617;62;20946;-58
2022/03/14 08:55:21;0.00;0.00;0.62;0.00;0.00;0.62;2.73;2.30;;;22.40;16.50;;;;;;2223114;62;20954;-53
2022/03/14 08:58:07;0.00;0.00;0.62;0.00;0.00;0.62;2.77;2.20;;;22.40;16.50;;;;;;2223751;62;20376;-56
2022/03/14 09:00:52;0.00;0.00;0.62;0.00;0.00;0.62;2.90;2.47;;;22.40;17.10;;;;;;2223302;62;20389;-56
2022/03/14 09:03:37;0.00;0.00;0.62;0.00;0.00;0.62;2.83;2.53;;;22.40;16.60;;;;;;2225506;62;20845;-55
2022/03/14 09:06:22;0.00;0.00;0.62;0.00;0.00;0.62;3.07;2.33;;;22.40;16.60;;;;;;2223639;62;20376;-56
2022/03/14 09:09:07;0.00;0.00;0.62;0.00;0.00;0.62;2.53;2.13;;;22.40;16.60;;;;;;2223730;62;20399;-53
2022/03/14 09:11:52;0.00;0.00;0.62;0.00;0.00;0.62;2.90;2.17;;;22.40;16.60;;;;;;2223528;62;20484;-56
2022/03/14 09:14:37;0.00;0.00;0.62;0.00;0.00;0.62;2.97;2.50;;;22.40;16.60;;;;;;2223691;62;20372;-53
2022/03/14 09:17:24;0.00;0.00;0.62;0.00;0.00;0.62;2.93;2.10;;;22.40;16.60;;;;;;2224006;62;20898;-54
2022/03/14 09:20:10;0.00;0.00;0.62;0.00;0.00;0.62;2.40;2.03;;;22.50;16.70;;;;;;2224104;62;20416;-53
2022/03/14 09:22:55;0.00;0.00;0.62;0.00;0.00;0.62;3.27;2.43;;;22.50;16.70;;;;;;2224406;62;20429;-51
2022/03/14 09:25:39;0.00;0.00;0.62;0.00;0.00;0.62;2.27;2.00;;;22.50;16.70;;;;;;2224078;62;20388;-57
2022/03/14 09:28:25;0.00;0.00;0.62;0.00;0.00;0.62;2.80;2.27;;;22.50;16.70;;;;;;2224296;62;20368;-57
2022/03/14 09:31:12;0.00;0.00;0.62;0.00;0.00;0.62;2.53;2.00;;;22.50;16.70;;;;;;2223997;62;20424;-55
2022/03/14 09:33:58;0.00;0.00;0.62;0.00;0.00;0.62;3.00;2.07;;;22.50;16.80;;;;;;2226426;62;20513;-56
2022/03/14 09:36:43;0.00;0.00;0.62;0.00;0.00;0.62;2.00;1.80;;;22.50;16.70;;;;;;2224277;62;20882;-56
2022/03/14 09:39:28;0.00;0.00;0.62;0.00;0.00;0.62;3.47;2.27;;;22.50;16.80;;;;;;2225171;62;20824;-59
2022/03/14 09:42:13;0.00;0.00;0.62;0.00;0.00;0.62;2.40;1.77;;;22.50;16.80;;;;;;2228395;62;20396;-58
2022/03/14 09:44:59;0.00;0.00;0.62;0.00;0.00;0.62;2.37;1.70;;;22.50;16.80;;;;;;2228119;62;20424;-54
2022/03/14 09:47:47;0.00;0.00;0.62;0.00;0.00;0.62;2.20;1.90;;;22.50;16.80;;;;;;2227761;62;20372;-55
2022/03/14 09:50:34;0.00;0.00;0.62;0.00;0.00;0.62;2.60;2.13;;;22.50;16.80;;;;;;2227410;62;20436;-56
2022/03/14 09:53:19;0.00;0.00;0.62;0.00;0.00;0.62;2.07;1.50;;;22.50;16.80;;;;;;2227685;62;20383;-53
2022/03/14 09:56:04;0.00;0.00;0.62;0.00;0.00;0.62;2.50;2.00;;;22.60;16.90;;;;;;2227612;62;20373;-56
2022/03/14 09:58:49;0.00;0.00;0.62;0.00;0.00;0.62;3.40;1.93;;;22.60;16.90;;;;;;2227968;62;20831;-53
2022/03/14 10:01:35;0.00;0.00;0.62;0.00;0.00;0.62;1.93;1.70;;;22.60;16.90;;;;;;2227676;62;20383;-54
2022/03/14 10:04:22;0.00;0.00;0.62;0.00;0.00;0.62;2.47;1.97;;;22.60;16.90;;;;;;2228044;62;20925;-55
2022/03/14 10:07:07;0.00;0.00;0.62;0.00;0.00;0.62;2.43;1.90;;;22.60;16.90;;;;;;2228040;62;20521;-57
2022/03/14 10:09:54;0.00;0.00;0.62;0.00;0.00;0.62;2.30;1.70;;;22.60;16.90;;;;;;2227501;62;20381;-55
2022/03/14 10:12:49;0.00;0.00;0.62;0.00;0.00;0.62;2.43;1.93;;;22.60;16.90;;;;;;2228221;62;20558;-56
2022/03/14 10:15:40;0.00;0.00;0.62;0.00;0.00;0.62;2.70;1.90;;;22.60;16.90;;;;;;2227837;62;20977;-59
2022/03/14 10:18:25;0.00;0.00;0.62;0.00;0.00;0.62;2.27;1.67;;;22.60;16.90;;;;;;2227912;62;20767;-55
2022/03/14 10:21:12;0.00;0.00;0.62;0.00;0.00;0.62;1.90;1.43;;;22.60;16.90;;;;;;2227858;62;20420;-55
2022/03/14 10:24:00;0.00;0.00;0.62;0.00;0.00;0.62;2.20;1.60;;;22.60;16.90;;;;;;2227587;62;20376;-57
2022/03/14 10:26:46;0.00;0.00;0.62;0.00;0.00;0.62;1.77;1.60;;;22.60;16.90;;;;;;2228000;62;20421;-55
2022/03/14 10:29:31;0.00;0.00;0.62;0.00;0.00;0.62;2.43;1.70;;;22.70;17.00;;;;;;2227694;62;20384;-54
2022/03/14 10:32:29;0.00;0.00;0.62;0.00;0.00;0.62;2.47;1.77;;;22.70;17.00;;;;;;2227824;62;20423;-57
2022/03/14 10:35:22;0.00;0.00;0.62;0.00;0.00;0.62;2.17;1.90;;;22.60;16.90;;;;;;2228027;62;20372;-58
2022/03/14 10:38:11;0.00;0.00;0.62;0.00;0.00;0.62;1.97;1.50;;;22.70;17.00;;;;;;2228209;62;20417;-56
2022/03/14 10:40:56;0.00;0.00;0.62;0.00;0.00;0.62;1.97;1.77;;;22.70;17.00;;;;;;2231333;62;20387;-55
2022/03/14 10:43:42;0.00;0.00;0.62;0.00;0.00;0.62;1.97;1.60;;;22.70;17.00;;;;;;2231268;62;20431;-54
2022/03/14 10:46:27;0.00;0.00;0.62;0.00;0.00;0.62;2.00;1.60;;;22.70;17.00;;;;;;2231458;62;20903;-55
2022/03/14 10:49:11;0.00;0.00;0.62;0.00;0.00;0.62;2.07;1.70;;;22.70;17.00;;;;;;2231715;62;20467;-54
2022/03/14 10:51:58;0.00;0.00;0.62;0.00;0.00;0.62;1.83;1.30;;;22.70;17.00;;;;;;2231572;62;20384;-55